Dobrodošli na spletni strani vremenske postaje Senovo. Vse informacije so informativnega značaja, saj vremenska postaja ni del državne mreže meteoroloških postaj. OBVESTILO: Letni količini padavin navedeni na spletni strani je potrebno prišteti 98,1 mm, zaradi izgube podatkov.


Posebna pozornost v zvezi z vremenskimi dogajanji ni potrebna.    Posebna pozornost v zvezi z vremenskimi dogajanji ni potrebna.

Pogled proti Armezu več informacij Pogled proti Armezu


Lisca več informacij Lisca


Radar strel več informacij blitzortung!


Radar padavin več informacij rain snow radar


Obiščite še:

Template documentation
and downloads

And another site



Weather Underground, zgodovina - Tekstovno

Dnevni povzetek za Avgust 29, 2017 Enote:  Angleško    Metrično   Obe
« Predhodni Dan
Naslednji Dan »
Dnevni Tedenski Mesečni Letni Po meri
  Višja: Nižja: Povprečje:
Temperatura: 80.4 °F 55.6 °F 67.5 °F
Točka rosišča: 64.6 °F 50 °F 57.2 °F
Vlažnost: 96 % 39 % 74 %
Hitrost vetra: 5.4 mph 0 mph 1.6 mph
Sunki vetra: 12.1 mph - -
Veter:- - SW
Zračni tlak: 30.2 in 30 in -
Padavine: 0 in    
Historical Graphs
 
 
Tabelarni podarki za Avgust 29, 2017
Čas Temperatura Točka rosišča Zračni tlak Veter Hitrost vetra Sunki vetra Vlažnost Intenziteta padavin (urna)
00:01 63 °F 61 °F 30.1 in WNW 0.9 mph 3.1 mph 93 % 0 in
00:06 63 °F 61 °F 30.1 in WNW 1.2 mph 3.1 mph 93 % 0 in
00:11 63 °F 61.2 °F 30.1 in WNW 0.7 mph 2.7 mph 94 % 0 in
00:16 63 °F 61.2 °F 30.1 in Calm     94 % 0 in
00:21 63 °F 61.2 °F 30.1 in Calm     94 % 0 in
00:26 63 °F 61.2 °F 30.1 in Calm     94 % 0 in
00:31 63 °F 61.2 °F 30.1 in WNW 0.3 mph 2.2 mph 94 % 0 in
00:36 63 °F 61.2 °F 30.1 in NW 0.8 mph 2.9 mph 94 % 0 in
00:41 63 °F 61.2 °F 30.1 in NW 1.3 mph 3.4 mph 94 % 0 in
00:46 62.8 °F 61 °F 30.1 in NW 0.9 mph 3.4 mph 94 % 0 in
00:51 62.8 °F 61 °F 30.1 in NNW 0.2 mph 2.2 mph 94 % 0 in
00:56 62.8 °F 61 °F 30.1 in NNE 0.1 mph 1.6 mph 94 % 0 in
01:01 62.8 °F 61 °F 30.1 in Calm     94 % 0 in
01:06 62.8 °F 61 °F 30.1 in NNW 0.5 mph 2.5 mph 94 % 0 in
01:11 62.8 °F 61 °F 30.1 in NNW 1 mph 2.5 mph 94 % 0 in
01:16 62.8 °F 61 °F 30.1 in NNW 0.7 mph 2.2 mph 94 % 0 in
01:21 62.8 °F 61 °F 30.1 in NNW 0.3 mph 2.5 mph 94 % 0 in
01:26 62.8 °F 61 °F 30.1 in NW 0.4 mph 2.9 mph 94 % 0 in
01:31 62.8 °F 61 °F 30.1 in NW 0.5 mph 2.9 mph 94 % 0 in
01:36 62.8 °F 61 °F 30.1 in NNW 0.7 mph 3.1 mph 94 % 0 in
01:46 62.6 °F 60.8 °F 30.1 in WNW 0.4 mph 2.5 mph 94 % 0 in
01:51 62.6 °F 60.8 °F 30.1 in NW 0.8 mph 2.9 mph 94 % 0 in
01:56 62.6 °F 60.8 °F 30.1 in NNW 1.7 mph 3.6 mph 94 % 0 in
02:01 62.6 °F 60.8 °F 30.1 in NW 1.8 mph 3.6 mph 94 % 0 in
02:06 62.4 °F 61 °F 30.1 in NNW 1.1 mph 2.9 mph 95 % 0 in
02:11 62.4 °F 61 °F 30.1 in NNW 1.1 mph 2.9 mph 95 % 0 in
02:17 62.4 °F 61 °F 30.1 in NW 1.3 mph 3.6 mph 95 % 0 in
02:18 62.4 °F 61 °F 30.1 in NW 1.3 mph 3.6 mph 95 % 0 in
02:23 62.4 °F 61 °F 30.1 in NW 1.5 mph 2.9 mph 95 % 0 in
02:28 62.2 °F 60.8 °F 30.1 in NW 1.4 mph 4 mph 95 % 0 in
02:33 62.2 °F 60.8 °F 30.1 in NW 1.1 mph 4 mph 95 % 0 in
02:35 62.2 °F 60.8 °F 30.1 in NW 1.2 mph 4 mph 95 % 0 in
02:40 62.2 °F 60.8 °F 30.1 in North 1.4 mph 3.1 mph 95 % 0 in
02:45 62.2 °F 60.8 °F 30.1 in NNW 1.8 mph 3.8 mph 95 % 0 in
02:50 62.2 °F 60.8 °F 30.1 in NNW 1.6 mph 3.8 mph 95 % 0 in
02:55 62.2 °F 60.8 °F 30.1 in NW 0.7 mph 3.1 mph 95 % 0 in
03:00 62.2 °F 60.8 °F 30.1 in NW 0.1 mph 2 mph 95 % 0 in
03:05 62.2 °F 60.8 °F 30.1 in NW 0.1 mph 2 mph 95 % 0 in
03:10 62.2 °F 60.8 °F 30.1 in NW 0.5 mph 2.9 mph 95 % 0 in
03:15 62.2 °F 60.8 °F 30.1 in NNW 0.9 mph 2.9 mph 95 % 0 in
03:20 62.2 °F 60.8 °F 30.1 in NNW 0.5 mph 2.7 mph 95 % 0 in
03:25 62.2 °F 60.8 °F 30.1 in WNW 0.3 mph 2.5 mph 95 % 0 in
03:30 62.2 °F 60.8 °F 30.1 in West 0.4 mph 2.9 mph 95 % 0 in
03:35 62.1 °F 60.6 °F 30.1 in NW 0.6 mph 2.9 mph 95 % 0 in
03:41 62.1 °F 60.6 °F 30.1 in NNW 1.6 mph 3.4 mph 95 % 0 in
03:46 62.1 °F 60.6 °F 30.1 in NW 2 mph 3.4 mph 95 % 0 in
03:51 61.9 °F 60.4 °F 30.1 in NW 1.1 mph 3.4 mph 95 % 0 in
03:55 61.9 °F 60.4 °F 30.1 in NW 1 mph 2.7 mph 95 % 0 in
04:01 61.9 °F 60.4 °F 30.1 in NW 1.4 mph 2.7 mph 95 % 0 in
04:06 61.9 °F 60.4 °F 30.1 in NW 1.3 mph 2.5 mph 95 % 0 in
04:11 61.9 °F 60.4 °F 30.1 in NNW 1.5 mph 2.7 mph 95 % 0 in
04:16 61.9 °F 60.4 °F 30.1 in NNW 1.1 mph 2.7 mph 95 % 0 in
04:21 61.9 °F 60.4 °F 30.1 in NNW 0.3 mph 1.6 mph 95 % 0 in
04:26 61.9 °F 60.4 °F 30.1 in NNW 0.1 mph 1.6 mph 95 % 0 in
04:31 61.9 °F 60.4 °F 30.1 in NW 0.1 mph 1.6 mph 95 % 0 in
04:36 61.9 °F 60.4 °F 30.1 in NW 0.3 mph 1.6 mph 95 % 0 in
04:41 61.7 °F 60.3 °F 30.1 in NW 0.1 mph 1.3 mph 95 % 0 in
04:51 61.7 °F 60.3 °F 30.1 in Calm     95 % 0 in
04:56 61.9 °F 60.6 °F 30.1 in Calm     96 % 0 in
05:01 61.9 °F 60.6 °F 30.1 in NW 0.1 mph 1.6 mph 96 % 0 in
05:07 61.9 °F 60.6 °F 30.1 in NW 0.2 mph 1.6 mph 96 % 0 in
05:12 61.9 °F 60.6 °F 30.1 in Calm     96 % 0 in
05:18 61.9 °F 60.6 °F 30.1 in Calm     96 % 0 in
05:22 61.9 °F 60.6 °F 30.1 in SW 0.1 mph 1.6 mph 96 % 0 in
05:23 61.9 °F 60.6 °F 30.1 in SW 0.1 mph 1.6 mph 96 % 0 in
05:24 61.9 °F 60.6 °F 30.1 in SW 0.1 mph 1.6 mph 96 % 0 in
05:27 61.9 °F 60.6 °F 30.1 in SSW 0.4 mph 1.6 mph 96 % 0 in
05:28 61.9 °F 60.6 °F 30.1 in SSW 0.5 mph 1.6 mph 96 % 0 in
05:29 61.9 °F 60.6 °F 30.1 in SSW 0.6 mph 1.6 mph 96 % 0 in
05:33 61.9 °F 60.6 °F 30.1 in SSW 0.5 mph 1.6 mph 96 % 0 in
05:38 61.9 °F 60.6 °F 30.1 in North 0.1 mph   96 % 0 in
05:43 61.9 °F 60.6 °F 30.1 in Calm     96 % 0 in
05:48 61.9 °F 60.6 °F 30.1 in Calm     96 % 0 in
05:53 61.9 °F 60.6 °F 30.1 in Calm     96 % 0 in
05:58 61.9 °F 60.4 °F 30.1 in Calm     95 % 0 in
06:03 61.9 °F 60.4 °F 30.1 in Calm     95 % 0 in
06:08 61.9 °F 60.4 °F 30.1 in NW 0.1 mph 2 mph 95 % 0 in
06:13 61.9 °F 60.4 °F 30.1 in NW 0.1 mph 2 mph 95 % 0 in
06:18 61.9 °F 60.4 °F 30.1 in NNW 0.6 mph 3.6 mph 95 % 0 in
06:23 61.9 °F 60.4 °F 30.1 in NNW 0.7 mph 3.6 mph 95 % 0 in
06:28 61.9 °F 60.4 °F 30.1 in North 0.1 mph   95 % 0 in
06:33 61.9 °F 60.4 °F 30.1 in Calm     95 % 0 in
06:38 61.9 °F 60.4 °F 30.1 in West 0.1 mph 2 mph 95 % 0 in
06:39 61.9 °F 60.4 °F 30.1 in WSW 0.3 mph 2 mph 95 % 0 in
06:44 61.9 °F 60.4 °F 30.1 in WSW 0.4 mph 2 mph 95 % 0 in
06:49 61.7 °F 60.3 °F 30.1 in WSW 0.1 mph 1.3 mph 95 % 0 in
06:54 61.7 °F 60.3 °F 30.1 in Calm     95 % 0 in
06:59 61.7 °F 60.3 °F 30.1 in Calm     95 % 0 in
07:04 61.7 °F 60.3 °F 30.1 in Calm     95 % 0 in
07:09 61.7 °F 60.3 °F 30.1 in Calm     95 % 0 in
07:15 61.7 °F 60.3 °F 30.1 in Calm     95 % 0 in
07:20 61.7 °F 60.3 °F 30.1 in Calm     95 % 0 in
07:25 61.7 °F 60.3 °F 30.1 in SW 0.9 mph 4.3 mph 95 % 0 in
07:30 61.9 °F 60.4 °F 30.1 in SW 1.3 mph 4.3 mph 95 % 0 in
07:35 61.9 °F 60.4 °F 30.1 in SSW 0.8 mph 3.1 mph 95 % 0 in
07:40 61.9 °F 60.4 °F 30.1 in SSW 1.7 mph 3.6 mph 95 % 0 in
07:45 61.9 °F 60.4 °F 30.1 in SSW 1.9 mph 3.6 mph 95 % 0 in
07:50 61.9 °F 60.4 °F 30.1 in SW 1.3 mph 3.1 mph 95 % 0 in
07:55 61.9 °F 60.4 °F 30.1 in SW 1.4 mph 2.5 mph 95 % 0 in
08:00 61.9 °F 60.4 °F 30.1 in WSW 1.3 mph 2.5 mph 95 % 0 in
08:05 61.9 °F 60.4 °F 30.1 in West 1 mph 2.7 mph 95 % 0 in
08:10 61.9 °F 60.1 °F 30.1 in NW 0.4 mph 2.7 mph 94 % 0 in
08:15 62.1 °F 60.3 °F 30.1 in Calm   1.1 mph 94 % 0 in
08:20 62.2 °F 60.4 °F 30.1 in SSW 0.1 mph 2 mph 94 % 0 in
08:25 62.2 °F 60.4 °F 30.1 in SW 0.6 mph 3.6 mph 94 % 0 in
08:30 62.4 °F 60.6 °F 30.1 in SW 2.3 mph 5.4 mph 94 % 0 in
08:35 62.6 °F 60.8 °F 30.1 in SW 3.6 mph 5.4 mph 94 % 0 in
08:40 63 °F 61.2 °F 30.1 in SW 3.1 mph 4.3 mph 94 % 0 in
08:45 63.5 °F 61.7 °F 30.1 in SW 3 mph 4 mph 94 % 0 in
08:50 63.5 °F 61.7 °F 30.1 in SW 3.4 mph 4.3 mph 94 % 0 in
08:55 63.9 °F 62.1 °F 30.1 in SW 3.5 mph 4.3 mph 94 % 0 in
09:00 63.9 °F 61.9 °F 30.1 in SW 3 mph 4.5 mph 93 % 0 in
09:05 64 °F 62.1 °F 30.1 in WSW 2.2 mph 4.5 mph 93 % 0 in
09:07 63.9 °F 61.9 °F 30.1 in WSW 2.2 mph 4.5 mph 93 % 0 in
09:11 63.9 °F 61.9 °F 30.1 in WNW 2 mph 4.3 mph 93 % 0 in
09:17 64.2 °F 61.9 °F 30.1 in WSW 2.4 mph 4 mph 92 % 0 in
09:22 64.8 °F 62.4 °F 30.1 in SSW 2.7 mph 4.7 mph 92 % 0 in
09:27 65.5 °F 63.1 °F 30.1 in SSW 2.9 mph 4.7 mph 92 % 0 in
09:32 65.8 °F 63.1 °F 30.1 in SSW 3 mph 4.3 mph 91 % 0 in
09:42 66.7 °F 63.7 °F 30.1 in SSW 3.3 mph 4.9 mph 90 % 0 in
09:43 66.7 °F 63.7 °F 30.1 in SSW 3.4 mph 4.3 mph 90 % 0 in
09:48 67.3 °F 63.9 °F 30.1 in SSW 3.5 mph 5.4 mph 89 % 0 in
09:53 67.5 °F 63.9 °F 30.1 in SSW 3.8 mph 5.4 mph 88 % 0 in
09:58 67.8 °F 64 °F 30.1 in SSW 3.5 mph 5.4 mph 88 % 0 in
10:03 68 °F 64 °F 30.1 in SSW 3.3 mph 4.9 mph 87 % 0 in
10:08 68.5 °F 64.2 °F 30.1 in SSW 3.5 mph 5.4 mph 86 % 0 in
10:13 68.9 °F 64.6 °F 30.1 in SSW 3.4 mph 5.4 mph 86 % 0 in
10:18 69.3 °F 64.2 °F 30.1 in SSW 2.9 mph 4 mph 84 % 0 in
10:23 69.6 °F 64.6 °F 30.1 in SSW 3 mph 5.6 mph 84 % 0 in
10:28 70 °F 64.2 °F 30.1 in SSW 3.3 mph 5.6 mph 82 % 0 in
10:34 70.2 °F 64.4 °F 30.1 in SW 3.4 mph 5.6 mph 82 % 0 in
10:39 70.7 °F 64.6 °F 30.1 in SW 3.3 mph 5.6 mph 81 % 0 in
10:40 70.9 °F 64.4 °F 30.1 in SSW 3.1 mph 5.6 mph 80 % 0 in
10:45 71.2 °F 64.4 °F 30.1 in SSW 2.5 mph 3.8 mph 79 % 0 in
10:50 71.8 °F 64.6 °F 30.1 in SW 2.5 mph 4.3 mph 78 % 0 in
10:55 72 °F 64.4 °F 30.1 in SW 2.3 mph 4.3 mph 77 % 0 in
11:00 72.1 °F 64.2 °F 30.1 in SW 2.5 mph 4.3 mph 76 % 0 in
11:05 72.3 °F 64.2 °F 30.1 in SW 2.6 mph 4.3 mph 76 % 0 in
11:10 72.3 °F 63.7 °F 30.1 in WSW 2.6 mph 5.4 mph 74 % 0 in
11:15 73 °F 63.9 °F 30.1 in SW 1.9 mph 5.4 mph 73 % 0 in
11:20 73.4 °F 64.2 °F 30.1 in South 1.3 mph 3.6 mph 73 % 0 in
11:25 74.1 °F 64 °F 30.1 in SSE 2.3 mph 5.6 mph 71 % 0 in
11:30 74.5 °F 63.7 °F 30.1 in South 2.9 mph 5.6 mph 69 % 0 in
11:35 74.5 °F 62.8 °F 30.1 in SW 2.6 mph 4.3 mph 67 % 0 in
11:40 74.8 °F 63.1 °F 30.1 in SW 2.3 mph 4.3 mph 67 % 0 in
11:45 75.2 °F 59.9 °F 30.1 in East 2.6 mph 6.3 mph 59 % 0 in
11:50 75.4 °F 58.6 °F 30.1 in East 3.2 mph 6.3 mph 56 % 0 in
11:52 75.6 °F 56.7 °F 30.1 in East 3.5 mph 6.3 mph 52 % 0 in
11:57 75.7 °F 56.3 °F 30.1 in ESE 3.4 mph 6.3 mph 51 % 0 in
12:02 75.9 °F 55.4 °F 30.1 in East 3.2 mph 7.6 mph 49 % 0 in
12:07 76.1 °F 55 °F 30.1 in East 3.3 mph 7.6 mph 48 % 0 in
12:12 76.1 °F 54.3 °F 30.1 in ENE 3.3 mph 10.1 mph 47 % 0 in
12:17 76.3 °F 54 °F 30.1 in East 4.2 mph 10.1 mph 46 % 0 in
12:22 76.5 °F 53.4 °F 30.1 in East 4.6 mph 10.1 mph 45 % 0 in
12:27 76.8 °F 54.5 °F 30.1 in ESE 3.7 mph 8.1 mph 46 % 0 in
12:32 77 °F 53.4 °F 30.1 in ESE 3.8 mph 7.8 mph 44 % 0 in
12:37 77.4 °F 54.3 °F 30.1 in ESE 4.1 mph 7.2 mph 45 % 0 in
12:43 77.4 °F 53.8 °F 30.1 in ESE 4 mph 6.5 mph 44 % 0 in
12:48 77.7 °F 54.1 °F 30.1 in SE 3.7 mph 7.2 mph 44 % 0 in
12:53 77.9 °F 54.9 °F 30.1 in SE 3.4 mph 7.2 mph 45 % 0 in
12:58 77.9 °F 53.6 °F 30.1 in East 3.5 mph 8.1 mph 43 % 0 in
13:03 77.9 °F 54.1 °F 30.1 in East 3.7 mph 8.5 mph 44 % 0 in
13:08 78.3 °F 54.7 °F 30.1 in ESE 4.5 mph 8.5 mph 44 % 0 in
13:13 78.4 °F 54.7 °F 30.1 in ESE 5.4 mph 8.9 mph 44 % 0 in
13:18 78.6 °F 54.1 °F 30.2 in ESE 5 mph 8.9 mph 43 % 0 in
13:23 78.3 °F 54 °F 30.2 in ESE 4.1 mph 10.5 mph 43 % 0 in
13:28 78.4 °F 54.1 °F 30.2 in ESE 4.3 mph 12.1 mph 43 % 0 in
13:33 78.6 °F 54.1 °F 30.1 in ESE 4.6 mph 12.1 mph 43 % 0 in
13:36 78.6 °F 54.1 °F 30.1 in ESE 4.3 mph 8.5 mph 43 % 0 in
13:41 78.4 °F 53.4 °F 30.1 in East 3.9 mph 8.1 mph 42 % 0 in
13:46 78.4 °F 54.1 °F 30.1 in East 3.1 mph 8.1 mph 43 % 0 in
13:51 78.3 °F 54 °F 30.1 in East 2.8 mph 8.1 mph 43 % 0 in
13:56 78.3 °F 53.2 °F 30.1 in East 2.9 mph 7.4 mph 42 % 0 in
14:01 78.6 °F 54.1 °F 30.1 in ESE 2.9 mph 8.1 mph 43 % 0 in
14:06 78.8 °F 53.8 °F 30.1 in ESE 3.1 mph 8.1 mph 42 % 0 in
14:11 78.8 °F 53.8 °F 30.1 in ESE 4 mph 9.8 mph 42 % 0 in
14:16 79 °F 54 °F 30.1 in ESE 3.8 mph 9.8 mph 42 % 0 in
14:21 79.5 °F 55 °F 30.1 in SE 2.8 mph 6.3 mph 43 % 0 in
14:26 79.3 °F 53.6 °F 30.1 in ESE 3.3 mph 7.6 mph 41 % 0 in
14:31 79.5 °F 54.3 °F 30.1 in ESE 3.6 mph 7.6 mph 42 % 0 in
14:36 79.3 °F 53.6 °F 30.1 in East 3.7 mph 7.4 mph 41 % 0 in
14:41 79.3 °F 54.3 °F 30.1 in East 4.3 mph 7.4 mph 42 % 0 in
14:46 79.3 °F 53.6 °F 30.1 in East 3.8 mph 11 mph 41 % 0 in
14:51 79.3 °F 53.6 °F 30.1 in ESE 4.9 mph 11 mph 41 % 0 in
14:56 79.5 °F 53.8 °F 30.1 in ESE 5.3 mph 10.3 mph 41 % 0 in
15:01 79.7 °F 53.2 °F 30.1 in ESE 3.6 mph 6 mph 40 % 0 in
15:06 79.7 °F 54 °F 30.1 in ESE 3.3 mph 6 mph 41 % 0 in
15:11 79.7 °F 54 °F 30.1 in East 2.9 mph 6 mph 41 % 0 in
15:16 79.7 °F 54 °F 30.1 in ENE 3.3 mph 8.7 mph 41 % 0 in
15:21 79.9 °F 54.1 °F 30.1 in East 3.3 mph 8.7 mph 41 % 0 in
15:26 79.9 °F 53.4 °F 30.1 in East 2.9 mph 5.8 mph 40 % 0 in
15:31 79.5 °F 53.1 °F 30.1 in East 3.2 mph 5.8 mph 40 % 0 in
15:36 79.3 °F 52.9 °F 30.1 in East 3 mph 5.8 mph 40 % 0 in
15:41 79.5 °F 53.1 °F 30.1 in East 3.4 mph 9.4 mph 40 % 0 in
15:46 79.3 °F 52.9 °F 30.1 in East 3.4 mph 9.4 mph 40 % 0 in
15:51 79.3 °F 52.2 °F 30.1 in East 2.9 mph 5.6 mph 39 % 0 in
15:56 79.5 °F 52.3 °F 30.1 in East 3 mph 6 mph 39 % 0 in
16:01 79.7 °F 53.2 °F 30 in East 3.2 mph 6 mph 40 % 0 in
16:06 79.9 °F 53.4 °F 30 in ESE 2.9 mph 5.8 mph 40 % 0 in
16:11 80.2 °F 53.1 °F 30 in ESE 3.1 mph 7.2 mph 39 % 0 in
16:16 80.2 °F 53.1 °F 30 in ESE 3.8 mph 8.1 mph 39 % 0 in
16:21 80.2 °F 53.1 °F 30 in ESE 3 mph 8.1 mph 39 % 0 in
16:26 80.4 °F 54 °F 30 in SSE 2 mph 6.3 mph 40 % 0 in
16:31 80.4 °F 54 °F 30 in ESE 3.3 mph 6.3 mph 40 % 0 in
16:36 80.2 °F 53.8 °F 30 in ESE 3.9 mph 6.3 mph 40 % 0 in
16:46 80.1 °F 53.6 °F 30.1 in ESE 3.5 mph 12.1 mph 40 % 0 in
16:51 79.9 °F 53.4 °F 30.1 in SE 2.3 mph 4.7 mph 40 % 0 in
16:56 79.7 °F 53.2 °F 30.1 in ESE 3 mph 6.5 mph 40 % 0 in
17:01 79.7 °F 53.2 °F 30.1 in SSE 3.1 mph 6.5 mph 40 % 0 in
17:06 79.9 °F 53.4 °F 30.1 in SSE 2.7 mph 6 mph 40 % 0 in
17:11 79.9 °F 53.4 °F 30.1 in ESE 3 mph 5.8 mph 40 % 0 in
17:16 79.9 °F 53.4 °F 30.1 in ESE 3.2 mph 5.8 mph 40 % 0 in
17:21 79.9 °F 53.4 °F 30.1 in SE 3.7 mph 7.2 mph 40 % 0 in
17:29 79.9 °F 53.4 °F 30.1 in SE 4 mph 7.8 mph 40 % 0 in
17:34 79.7 °F 53.2 °F 30.1 in South 2.7 mph 7.8 mph 40 % 0 in
17:39 79.5 °F 53.1 °F 30.1 in SSW 2.1 mph 5.6 mph 40 % 0 in
17:44 79.3 °F 52.9 °F 30.1 in South 2.6 mph 5.6 mph 40 % 0 in
17:49 78.8 °F 52.3 °F 30.1 in South 2.5 mph 4.9 mph 40 % 0 in
17:54 78.4 °F 52.2 °F 30.1 in South 1.9 mph 4.3 mph 40 % 0 in
17:59 77.7 °F 51.4 °F 30.1 in South 2.1 mph 6.3 mph 40 % 0 in
18:04 77 °F 51.4 °F 30.1 in SSE 2.6 mph 6.3 mph 41 % 0 in
18:09 76.6 °F 51.3 °F 30.1 in SSE 1.8 mph 5.6 mph 41 % 0 in
18:14 76.1 °F 50.7 °F 30.1 in South 1.2 mph 4.7 mph 41 % 0 in
18:19 75.6 °F 50.2 °F 30.1 in South 2.1 mph 5.4 mph 41 % 0 in
18:24 75.2 °F 50.5 °F 30.1 in South 1.6 mph 5.4 mph 42 % 0 in
18:29 74.7 °F 50 °F 30.1 in SE 0.6 mph 4 mph 42 % 0 in
18:34 74.3 °F 50.4 °F 30.1 in SE 0.7 mph 4 mph 43 % 0 in
18:37 73.9 °F 50 °F 30.1 in South 0.8 mph 2.9 mph 43 % 0 in
18:42 73.6 °F 50.4 °F 30.1 in South 1.2 mph 2.9 mph 44 % 0 in
18:47 72.7 °F 50.2 °F 30.1 in SW 0.8 mph 2.7 mph 45 % 0 in
18:52 72 °F 50.5 °F 30.1 in NW 1.2 mph 3.8 mph 47 % 0 in
18:57 71.1 °F 50.9 °F 30.1 in NNW 1.5 mph 3.8 mph 49 % 0 in
19:02 70.5 °F 51.4 °F 30.1 in NNW 1.4 mph 3.1 mph 51 % 0 in
19:07 70 °F 51.4 °F 30.1 in NNW 1.1 mph 2.9 mph 52 % 0 in
19:12 69.3 °F 52.3 °F 30.1 in NNW 1 mph 3.1 mph 55 % 0 in
19:17 68.7 °F 52.3 °F 30.1 in NNW 0.7 mph 3.1 mph 56 % 0 in
19:22 68.2 °F 52.3 °F 30.1 in NNW 0.8 mph 4 mph 57 % 0 in
19:27 67.8 °F 52.5 °F 30.1 in NNW 1.4 mph 4 mph 58 % 0 in
19:32 67.5 °F 52.5 °F 30.1 in NW 1.2 mph 3.4 mph 59 % 0 in
19:37 67.1 °F 53.2 °F 30.1 in NNW 1.1 mph 2.7 mph 61 % 0 in
19:42 66.7 °F 52.9 °F 30.1 in NNW 1.5 mph 2.9 mph 61 % 0 in
19:52 65.8 °F 52.9 °F 30.1 in NW 0.2 mph 1.3 mph 63 % 0 in
19:57 65.3 °F 53.2 °F 30.1 in NNW 0.5 mph 2.2 mph 65 % 0 in
20:02 64.9 °F 53.2 °F 30.1 in NNW 0.6 mph 2.2 mph 66 % 0 in
20:07 64.2 °F 53.4 °F 30.1 in North 0.3 mph 2.2 mph 68 % 0 in
20:13 63.9 °F 53.4 °F 30.1 in North 0.2 mph 2.2 mph 69 % 0 in
20:18 63.7 °F 53.2 °F 30.1 in NW 0.1 mph 2.2 mph 69 % 0 in
20:23 63.3 °F 53.1 °F 30.1 in NW 0.1 mph 2.2 mph 69 % 0 in
20:26 63.1 °F 53.2 °F 30.1 in NW 0.1 mph 2.2 mph 70 % 0 in
20:31 62.8 °F 53.2 °F 30.1 in Calm     71 % 0 in
20:33 62.6 °F 53.1 °F 30.1 in Calm     71 % 0 in
20:38 62.2 °F 53.1 °F 30.1 in Calm     72 % 0 in
20:43 62.1 °F 52.9 °F 30.1 in NW 0.3 mph 2.2 mph 72 % 0 in
20:48 61.7 °F 52.5 °F 30 in NW 0.5 mph 2.2 mph 72 % 0 in
20:53 61.3 °F 53.1 °F 30 in NW 0.3 mph 2 mph 74 % 0 in
20:58 61.2 °F 52.3 °F 30 in Calm     73 % 0 in
21:03 61 °F 53.1 °F 30 in Calm     75 % 0 in
21:08 60.6 °F 52.5 °F 30 in Calm     75 % 0 in
21:13 60.4 °F 52.5 °F 30 in Calm     75 % 0 in
21:18 60.3 °F 52.7 °F 30.1 in Calm     76 % 0 in
21:23 60.1 °F 52.5 °F 30.1 in Calm     76 % 0 in
21:28 59.7 °F 52.5 °F 30.1 in Calm     77 % 0 in
21:33 59.5 °F 52.7 °F 30.1 in Calm     78 % 0 in
21:38 59.5 °F 52.7 °F 30.1 in Calm     78 % 0 in
21:43 59.4 °F 52.5 °F 30.1 in Calm     78 % 0 in
21:48 59.2 °F 52.7 °F 30.1 in Calm     79 % 0 in
21:53 59 °F 52.2 °F 30.1 in Calm     78 % 0 in
21:58 58.8 °F 52.7 °F 30.1 in Calm     80 % 0 in
22:03 58.6 °F 52.5 °F 30.1 in Calm     80 % 0 in
22:08 58.5 °F 52.3 °F 30.1 in NW 0.3 mph 2.2 mph 80 % 0 in
22:13 58.5 °F 52.3 °F 30.1 in NW 0.3 mph 2.2 mph 80 % 0 in
22:18 58.1 °F 52.3 °F 30.1 in Calm     81 % 0 in
22:23 58.1 °F 52.3 °F 30.1 in Calm     81 % 0 in
22:28 57.9 °F 52.2 °F 30.1 in Calm     81 % 0 in
22:33 57.7 °F 52.3 °F 30.1 in Calm     82 % 0 in
22:38 57.6 °F 52.2 °F 30.1 in Calm     82 % 0 in
22:43 57.6 °F 52.2 °F 30.1 in Calm     82 % 0 in
22:48 57.2 °F 51.8 °F 30.1 in Calm     82 % 0 in
22:53 57.2 °F 52.2 °F 30.1 in Calm     83 % 0 in
23:03 56.8 °F 51.6 °F 30.1 in Calm     83 % 0 in
23:08 56.8 °F 51.6 °F 30.1 in Calm     83 % 0 in
23:13 56.7 °F 52 °F 30.1 in Calm     84 % 0 in
23:18 56.5 °F 51.4 °F 30.1 in Calm     83 % 0 in
23:23 56.3 °F 51.4 °F 30.1 in Calm     84 % 0 in
23:28 56.3 °F 51.4 °F 30.1 in Calm     84 % 0 in
23:33 56.1 °F 51.4 °F 30.1 in Calm     84 % 0 in
23:38 55.9 °F 51.4 °F 30.1 in Calm     85 % 0 in
23:43 55.9 °F 51.4 °F 30.1 in Calm     85 % 0 in
23:48 55.9 °F 51.4 °F 30.1 in NW 0.2 mph 1.6 mph 85 % 0 in
23:53 55.8 °F 51.3 °F 30.1 in NW 0.2 mph 1.6 mph 85 % 0 in
23:58 55.6 °F 51.1 °F 30.1 in Calm     85 % 0 in
Vremenska postaja Senovo
Podatki zbrani iz Weather Underground - 3 mb

Script developed by  Jim McMurry - jmcmurry@mwt.net Adapted for the template by  Wim van der Kuil - Leuven-Template.eu

Vremenski podatki so objavljeni na:

WeatherCloud

Weather Underground

AWEKAS

HAMweather, WeatherForYou, PWS Weather

MapView

Geostik

Slovenia weather network

Oprema, ki se uporablja:

Vremenski program
Cumulus

Cumulus